Time;durP1;ratioP1;P1;durP2;ratioP2;P2;SDS_P1;SDS_P2;PMS_P1;PMS_P2;Temp;Humidity;BMP_temperature;BMP_pressure;BME280_temperature;BME280_humidity;BME280_pressure;Samples;Min_cycle;Max_cycle;Signal;HPM_P1;HPM_P2
2022/09/12 00:00:04;;;;;;;5.28;4.70;;;20.60;99.90;;;;;;10201415;29;20231;-92
2022/09/12 00:05:12;;;;;;;4.95;4.45;;;20.60;99.90;;;;;;10201410;29;20270;-92
2022/09/12 00:10:16;;;;;;;5.43;4.80;;;20.60;99.90;;;;;;10200744;29;20727;-93
2022/09/12 00:15:18;;;;;;;5.22;4.55;;;20.60;99.90;;;;;;10190114;29;20313;-92
2022/09/12 00:20:21;;;;;;;4.68;4.13;;;20.60;99.90;;;;;;10164948;29;20259;-92
2022/09/12 00:25:23;;;;;;;5.07;4.57;;;20.50;99.90;;;;;;10191619;29;20274;-92
2022/09/12 00:30:26;;;;;;;4.70;4.30;;;20.50;99.90;;;;;;10173830;29;20227;-93
2022/09/12 00:35:28;;;;;;;4.60;4.20;;;20.60;99.90;;;;;;10155304;29;20259;-92
2022/09/12 00:40:30;;;;;;;5.10;4.70;;;20.50;99.90;;;;;;10193662;29;20203;-92
2022/09/12 00:45:33;;;;;;;5.68;5.07;;;20.50;99.90;;;;;;10190924;29;20231;-92
2022/09/12 00:50:36;;;;;;;5.53;5.00;;;20.50;99.90;;;;;;10192888;29;20247;-93
2022/09/12 00:55:42;;;;;;;4.90;4.40;;;20.50;99.90;;;;;;10192128;29;20254;-92
2022/09/12 01:00:46;;;;;;;5.45;4.95;;;20.50;99.90;;;;;;10198288;29;20299;-93
2022/09/12 01:06:17;;;;;;;5.38;4.65;;;20.50;99.90;;;;;;10189625;29;20235;-92
2022/09/12 01:11:20;;;;;;;5.45;4.47;;;20.50;99.90;;;;;;10188233;29;20803;-92
2022/09/12 01:16:23;;;;;;;5.32;4.82;;;20.50;99.90;;;;;;10185448;29;20711;-93
2022/09/12 01:21:39;;;;;;;5.03;4.53;;;20.50;99.90;;;;;;10209142;29;20239;-92
2022/09/12 01:27:07;;;;;;;5.05;4.65;;;20.50;99.90;;;;;;10207160;29;20299;-93
2022/09/12 01:32:21;;;;;;;5.30;4.43;;;20.50;99.90;;;;;;10209014;29;20293;-92
2022/09/12 01:37:56;;;;;;;5.15;4.65;;;20.50;99.90;;;;;;10191784;29;20677;-92
2022/09/12 01:43:11;;;;;;;5.00;4.53;;;20.50;99.90;;;;;;10160596;29;20286;-93
2022/09/12 01:48:21;;;;;;;4.55;4.15;;;20.50;99.90;;;;;;10180801;29;20231;-93
2022/09/12 01:53:33;;;;;;;5.68;4.70;;;20.40;99.90;;;;;;10171001;29;20796;-92
2022/09/12 01:58:44;;;;;;;5.40;4.90;;;20.40;99.90;;;;;;10167145;29;20822;-92
2022/09/12 02:03:57;;;;;;;4.97;4.47;;;20.50;99.90;;;;;;10204112;29;20298;-93
2022/09/12 02:09:05;;;;;;;5.85;4.97;;;20.40;99.90;;;;;;10212663;28;20246;-93
2022/09/12 02:14:12;;;;;;;5.35;4.85;;;20.40;99.90;;;;;;10191360;29;20708;-92
2022/09/12 02:19:18;;;;;;;4.65;4.18;;;20.40;99.90;;;;;;10191168;29;20211;-92
2022/09/12 02:24:24;;;;;;;5.90;4.28;;;20.40;99.90;;;;;;10202148;29;20238;-91
2022/09/12 02:29:27;;;;;;;4.60;4.10;;;20.40;99.90;;;;;;10195582;29;20759;-91
2022/09/12 02:35:02;;;;;;;5.30;4.65;;;20.40;99.90;;;;;;10207127;29;20379;-92
2022/09/12 02:40:07;;;;;;;4.57;4.18;;;20.40;99.90;;;;;;10189583;29;20363;-91
2022/09/12 02:45:11;;;;;;;4.95;4.45;;;20.40;99.90;;;;;;10206134;29;20297;-91
2022/09/12 02:50:13;;;;;;;4.95;4.45;;;20.40;99.90;;;;;;10205556;29;20231;-92
2022/09/12 02:55:16;;;;;;;5.55;4.78;;;20.40;99.90;;;;;;10189381;29;20263;-92
2022/09/12 03:00:19;;;;;;;4.78;4.38;;;20.40;99.90;;;;;;10193247;29;20234;-92
2022/09/12 03:05:55;;;;;;;4.75;4.35;;;20.40;99.90;;;;;;10207139;29;20243;-92
2022/09/12 03:11:07;;;;;;;4.90;4.45;;;20.40;99.90;;;;;;10145443;29;20278;-92
2022/09/12 03:16:38;;;;;;;4.97;4.57;;;20.40;99.90;;;;;;10199093;29;20239;-92
2022/09/12 03:22:12;;;;;;;4.85;4.45;;;20.40;99.90;;;;;;10090904;29;20727;-91
2022/09/12 03:27:27;;;;;;;5.10;4.70;;;20.40;99.90;;;;;;10076349;29;20634;-91
2022/09/12 03:32:48;;;;;;;5.53;5.03;;;20.30;99.90;;;;;;10091643;29;20306;-91
2022/09/12 03:37:51;;;;;;;5.28;4.80;;;20.40;99.90;;;;;;10089799;29;20252;-92
2022/09/12 03:42:54;;;;;;;5.13;4.63;;;20.40;99.90;;;;;;10074669;29;20313;-92
2022/09/12 03:47:57;;;;;;;4.95;4.45;;;20.40;99.90;;;;;;10090638;29;20329;-92
2022/09/12 03:53:02;;;;;;;5.40;4.50;;;20.40;99.90;;;;;;10060625;29;20269;-91
2022/09/12 03:58:04;;;;;;;5.22;4.72;;;20.40;99.90;;;;;;10169932;29;20241;-93
2022/09/12 04:03:08;;;;;;;5.47;4.75;;;20.50;99.90;;;;;;10182124;29;20254;-91
2022/09/12 04:08:10;;;;;;;4.63;4.22;;;20.40;99.90;;;;;;10193853;29;20235;-92
2022/09/12 04:13:12;;;;;;;4.55;4.15;;;20.40;99.90;;;;;;10217379;29;20270;-91
2022/09/12 04:18:15;;;;;;;6.38;4.22;;;20.40;99.90;;;;;;10208959;29;20230;-92
2022/09/12 04:23:18;;;;;;;5.10;4.65;;;20.50;99.90;;;;;;10223972;28;20656;-92
2022/09/12 04:28:21;;;;;;;5.22;4.72;;;20.50;99.90;;;;;;10180059;29;20231;-91
2022/09/12 04:33:23;;;;;;;4.85;4.45;;;20.50;99.90;;;;;;10184654;29;20337;-93
2022/09/12 04:38:26;;;;;;;4.95;4.40;;;20.50;99.90;;;;;;10207595;29;20225;-94
2022/09/12 04:43:28;;;;;;;4.82;4.43;;;20.50;99.90;;;;;;10192695;29;20242;-92
2022/09/12 04:48:31;;;;;;;4.45;4.05;;;20.50;99.90;;;;;;10209026;29;20297;-93
2022/09/12 04:53:33;;;;;;;5.63;4.35;;;20.50;99.90;;;;;;10207746;29;20712;-93
2022/09/12 04:58:37;;;;;;;5.43;4.93;;;20.50;99.90;;;;;;10209054;29;20293;-91
2022/09/12 05:03:44;;;;;;;6.85;4.35;;;20.50;99.90;;;;;;10210762;29;20924;-92
2022/09/12 05:08:47;;;;;;;6.45;3.40;;;19.10;99.90;;;;;;10216239;29;20235;-92
2022/09/12 05:13:49;;;;;;;4.97;3.63;;;19.40;99.90;;;;;;10206769;29;20334;-93
2022/09/12 05:18:52;;;;;;;4.40;3.75;;;19.50;99.90;;;;;;10208062;29;20207;-93
2022/09/12 05:23:58;;;;;;;4.28;3.70;;;19.80;99.90;;;;;;10208812;29;20238;-93
2022/09/12 05:29:03;;;;;;;7.93;4.68;;;20.20;99.90;;;;;;10208118;29;20678;-92
2022/09/12 05:34:08;;;;;;;7.20;6.50;;;19.30;99.90;;;;;;10208071;29;20312;-91
2022/09/12 05:39:10;;;;;;;7.90;7.10;;;13.00;99.90;;;;;;10207705;29;20235;-91
2022/09/12 05:44:13;;;;;;;13.93;8.73;;;12.40;99.90;;;;;;10208322;29;20294;-91
2022/09/12 05:49:16;;;;;;;7.47;5.07;;;12.40;99.90;;;;;;10205791;29;20302;-96
2022/09/12 05:54:19;;;;;;;7.43;5.10;;;12.70;99.90;;;;;;10212490;29;20607;-92
2022/09/12 05:59:22;;;;;;;7.80;4.70;;;16.10;99.90;;;;;;10208686;29;20247;-92
2022/09/12 06:04:26;;;;;;;9.03;3.30;;;18.00;99.90;;;;;;10208665;29;20270;-92
2022/09/12 06:09:29;;;;;;;5.97;4.07;;;18.80;99.90;;;;;;10207323;29;20286;-93
2022/09/12 06:14:32;;;;;;;43.73;7.87;;;19.00;99.90;;;;;;10189886;29;20309;-92
2022/09/12 06:19:34;;;;;;;19.93;7.10;;;18.40;99.90;;;;;;10178072;29;20293;-91
2022/09/12 06:24:37;;;;;;;20.30;9.07;;;19.30;99.90;;;;;;10204095;29;20238;-91
2022/09/12 06:29:40;;;;;;;32.17;12.17;;;19.50;99.90;;;;;;10196131;29;20219;-91
2022/09/12 06:34:46;;;;;;;26.00;11.20;;;20.10;99.90;;;;;;10189104;29;20262;-91
2022/09/12 06:39:48;;;;;;;28.30;15.20;;;19.70;99.90;;;;;;10205618;29;20704;-91
2022/09/12 06:44:50;;;;;;;29.75;15.73;;;20.30;99.90;;;;;;10230904;28;20293;-92
2022/09/12 06:49:53;;;;;;;26.98;12.68;;;20.40;99.90;;;;;;10198261;29;20247;-91
2022/09/12 06:54:55;;;;;;;26.98;18.08;;;20.60;99.90;;;;;;10213833;29;20289;-91
2022/09/12 06:59:58;;;;;;;40.10;18.88;;;21.20;99.90;;;;;;10197110;29;20266;-91
2022/09/12 07:05:01;;;;;;;27.85;19.20;;;21.30;99.90;;;;;;10205337;29;20299;-92
2022/09/12 07:10:05;;;;;;;22.75;18.52;;;21.20;99.90;;;;;;10214677;29;20321;-91
2022/09/12 07:15:09;;;;;;;22.42;17.13;;;21.80;99.90;;;;;;10181539;29;20321;-91
2022/09/12 07:20:12;;;;;;;14.73;12.30;;;21.60;99.90;;;;;;10196559;29;20211;-90
2022/09/12 07:25:14;;;;;;;26.95;20.08;;;21.80;99.90;;;;;;10213911;29;20262;-90
2022/09/12 07:30:17;;;;;;;28.58;18.58;;;22.10;99.90;;;;;;10182642;29;20628;-92
2022/09/12 07:35:20;;;;;;;23.65;18.77;;;22.10;99.90;;;;;;10196072;29;20280;-91
2022/09/12 07:40:22;;;;;;;23.38;18.85;;;21.80;99.90;;;;;;10193435;29;20231;-91
2022/09/12 07:45:25;;;;;;;23.05;18.48;;;21.90;99.90;;;;;;10211728;29;20282;-90
2022/09/12 07:50:28;;;;;;;24.52;16.85;;;21.80;99.90;;;;;;10211239;29;20223;-91
2022/09/12 07:55:31;;;;;;;8.68;6.43;;;21.70;99.90;;;;;;10194467;29;20255;-91
2022/09/12 08:00:35;;;;;;;20.30;16.88;;;21.30;99.90;;;;;;10180096;29;20279;-91
2022/09/12 08:05:37;;;;;;;23.05;17.70;;;21.80;99.90;;;;;;10211160;29;20211;-90
2022/09/12 08:10:40;;;;;;;22.27;17.40;;;22.20;99.90;;;;;;10210207;29;20315;-91
2022/09/12 08:15:42;;;;;;;20.95;15.45;;;22.40;99.90;;;;;;10202887;29;20262;-91
2022/09/12 08:20:44;;;;;;;19.75;15.90;;;21.90;99.90;;;;;;10210613;29;20274;-91
2022/09/12 08:25:47;;;;;;;9.13;8.23;;;22.30;99.90;;;;;;10210361;29;20222;-91
2022/09/12 08:30:50;;;;;;;20.00;15.88;;;21.00;99.90;;;;;;10211464;29;20298;-91
2022/09/12 08:35:52;;;;;;;11.52;8.77;;;22.00;99.90;;;;;;10210492;29;20254;-91
2022/09/12 08:41:03;;;;;;;12.40;10.43;;;21.40;99.90;;;;;;10210759;29;20235;-92
2022/09/12 08:46:44;;;;;;;16.35;12.95;;;21.50;99.90;;;;;;10185301;29;20703;-91
2022/09/12 08:51:46;;;;;;;17.48;15.20;;;21.90;99.90;;;;;;10206538;29;20297;-92
2022/09/12 08:56:50;;;;;;;10.25;6.38;;;22.40;99.90;;;;;;10176389;29;20266;-91
2022/09/12 09:01:58;;;;;;;18.45;14.90;;;22.20;99.90;;;;;;10190135;29;20286;-92
2022/09/12 09:07:17;;;;;;;19.52;15.95;;;21.80;99.90;;;;;;10174898;29;20317;-91
2022/09/12 09:12:42;;;;;;;15.40;13.77;;;21.40;99.90;;;;;;10193958;29;20298;-91
2022/09/12 09:17:50;;;;;;;16.13;13.38;;;21.70;99.90;;;;;;10220749;29;20645;-91
2022/09/12 09:23:14;;;;;;;11.27;10.23;;;22.10;99.90;;;;;;10206179;29;20263;-90
2022/09/12 09:28:28;;;;;;;16.40;14.70;;;21.30;99.90;;;;;;10262661;28;20186;-91
2022/09/12 09:33:33;;;;;;;10.98;5.85;;;21.90;99.90;;;;;;10286967;28;20187;-91
2022/09/12 09:39:02;;;;;;;3.70;3.25;;;22.00;99.90;;;;;;10262636;28;20230;-91
2022/09/12 09:44:13;;;;;;;7.40;6.10;;;21.10;99.90;;;;;;10261781;28;20277;-91
2022/09/12 09:49:16;;;;;;;12.40;11.13;;;21.00;99.90;;;;;;10275548;28;20191;-91
2022/09/12 09:54:34;;;;;;;8.90;7.95;;;21.00;99.90;;;;;;10244947;28;20227;-92
2022/09/12 09:59:36;;;;;;;15.45;13.88;;;20.90;99.90;;;;;;10273258;28;20179;-92
2022/09/12 10:04:54;;;;;;;4.93;3.08;;;21.10;99.90;;;;;;10268087;28;20179;-91
2022/09/12 10:10:25;;;;;;;8.48;6.13;;;21.20;99.90;;;;;;10275073;28;20215;-91
2022/09/12 10:15:32;;;;;;;14.82;12.95;;;20.60;99.90;;;;;;10243353;28;20274;-91
2022/09/12 10:20:44;;;;;;;20.40;16.40;;;20.90;99.90;;;;;;10249146;28;20199;-89
2022/09/12 10:26:00;;;;;;;7.20;6.50;;;21.90;99.90;;;;;;10229002;29;20215;-90
2022/09/12 10:31:03;;;;;;;15.40;13.85;;;20.90;99.90;;;;;;10231384;28;20191;-90
2022/09/12 10:36:05;;;;;;;16.13;14.45;;;20.80;99.90;;;;;;10260786;28;20195;-91
2022/09/12 10:41:10;;;;;;;7.20;6.00;;;22.00;99.90;;;;;;10230470;29;20227;-89
2022/09/12 10:46:18;;;;;;;4.47;1.83;;;21.60;99.90;;;;;;10231295;29;20207;-90
2022/09/12 10:51:23;;;;;;;10.10;9.02;;;20.50;99.90;;;;;;10247440;28;20176;-90
2022/09/12 10:56:38;;;;;;;14.38;13.00;;;21.30;99.90;;;;;;10250079;28;20230;-91
2022/09/12 11:01:45;;;;;;;7.53;6.70;;;21.60;99.90;;;;;;10259532;28;20179;-91
2022/09/12 11:06:56;;;;;;;11.40;10.23;;;21.10;99.90;;;;;;10302507;23;20237;-81
2022/09/12 11:12:23;;;;;;;6.40;5.80;;;21.30;99.90;;;;;;10253959;29;20285;-80
2022/09/12 11:17:52;;;;;;;4.90;2.25;;;21.30;99.90;;;;;;10234427;29;20713;-81
2022/09/12 11:23:19;;;;;;;7.70;6.28;;;21.00;99.90;;;;;;10236239;29;20285;-81
2022/09/12 11:28:37;;;;;;;6.35;5.75;;;21.20;99.90;;;;;;10253866;28;20198;-81
2022/09/12 11:33:52;;;;;;;1.70;1.55;;;21.80;99.90;;;;;;10253756;28;20234;-80
2022/09/12 11:39:19;;;;;;;3.28;2.97;;;21.30;99.90;;;;;;10253545;28;20249;-81
2022/09/12 11:44:27;;;;;;;3.70;1.65;;;20.80;99.90;;;;;;10236381;29;20199;-81
2022/09/12 11:49:39;;;;;;;6.70;6.03;;;20.00;99.90;;;;;;10253185;28;20273;-81
2022/09/12 11:54:47;;;;;;;98.18;11.90;;;19.80;99.90;;;;;;10249696;29;20257;-82
2022/09/12 12:00:20;;;;;;;37.78;6.03;;;19.60;99.90;;;;;;10229998;29;20234;-82
2022/09/12 12:05:34;;;;;;;48.38;10.52;;;20.60;99.90;;;;;;10213212;29;20238;-82
2022/09/12 12:10:40;;;;;;;62.90;12.93;;;21.50;99.90;;;;;;10225304;29;20633;-82
2022/09/12 12:16:13;;;;;;;62.55;15.13;;;22.50;99.90;;;;;;10230873;29;20329;-83
2022/09/12 12:21:18;;;;;;;61.42;15.52;;;22.80;99.90;;;;;;10237019;29;20280;-82
2022/09/12 12:26:59;;;;;;;54.38;18.27;;;22.60;99.90;;;;;;10235636;28;20746;-82
2022/09/12 12:32:01;;;;;;;49.83;16.38;;;22.90;99.90;;;;;;10237985;29;20210;-83
2022/09/12 12:37:21;;;;;;;38.28;15.70;;;23.30;99.90;;;;;;10249912;29;20316;-83
2022/09/12 12:42:33;;;;;;;38.45;17.05;;;23.50;99.90;;;;;;10232418;28;20233;-82
2022/09/12 12:47:38;;;;;;;41.22;15.68;;;23.70;99.90;;;;;;10250190;29;20683;-83
2022/09/12 12:52:44;;;;;;;46.22;16.65;;;23.90;99.90;;;;;;10250566;28;20662;-83
2022/09/12 12:57:49;;;;;;;28.02;14.52;;;24.00;99.90;;;;;;10249579;29;20262;-83
2022/09/12 13:03:05;;;;;;;40.45;15.27;;;24.00;99.90;;;;;;10233080;29;20578;-84
2022/09/12 13:08:10;;;;;;;25.75;13.07;;;24.10;99.90;;;;;;10247594;28;20257;-82
2022/09/12 13:13:23;;;;;;;29.50;15.48;;;23.50;99.90;;;;;;10221493;29;20261;-83
2022/09/12 13:18:47;;;;;;;24.48;14.43;;;23.60;99.90;;;;;;10248401;29;20698;-82
2022/09/12 13:24:03;;;;;;;23.75;13.13;;;23.60;99.90;;;;;;10247965;29;20292;-82
2022/09/12 13:29:09;;;;;;;17.70;9.35;;;24.00;99.90;;;;;;10248637;29;20700;-82
2022/09/12 13:34:21;;;;;;;28.08;11.65;;;23.60;99.90;;;;;;10249193;28;20288;-86
2022/09/12 13:39:26;;;;;;;7.50;4.07;;;23.70;99.90;;;;;;10230859;29;20804;-81
2022/09/12 13:44:31;;;;;;;6.20;5.53;;;23.90;97.60;;;;;;10247665;28;20630;-81
2022/09/12 13:49:38;;;;;;;16.70;11.05;;;23.80;97.40;;;;;;10247747;28;20254;-81
2022/09/12 13:54:44;;;;;;;4.38;1.77;;;;;;;;;;10247097;28;20269;-86
2022/09/12 13:59:46;;;;;;;9.60;4.13;;;19.60;99.90;;;;;;10248060;28;20313;-81
2022/09/12 14:05:10;;;;;;;4.82;4.32;;;19.70;99.90;;;;;;10227904;28;20237;-81
2022/09/12 14:10:19;;;;;;;7.35;6.65;;;22.00;99.90;;;;;;10246103;28;20282;-81
2022/09/12 14:15:29;;;;;;;7.13;6.40;;;22.90;99.90;;;;;;10244405;28;20290;-80
2022/09/12 14:20:36;;;;;;;8.25;7.40;;;23.20;99.90;;;;;;10247642;29;20238;-81
2022/09/12 14:25:40;;;;;;;11.98;7.80;;;23.10;99.90;;;;;;10246086;29;20237;-81
2022/09/12 14:30:57;;;;;;;9.98;9.00;;;22.70;99.90;;;;;;10247955;28;20235;-81
2022/09/12 14:36:17;;;;;;;6.32;5.35;;;22.80;99.90;;;;;;10247799;28;20650;-81
2022/09/12 14:41:24;;;;;;;9.27;8.38;;;22.30;99.90;;;;;;10200673;29;20249;-81
2022/09/12 14:46:27;;;;;;;9.82;8.85;;;22.20;99.90;;;;;;10247166;28;20230;-81
2022/09/12 14:51:37;;;;;;;2.75;2.55;;;22.50;99.90;;;;;;10228030;28;20687;-80
2022/09/12 14:56:52;;;;;;;4.00;2.70;;;22.50;99.10;;;;;;10227486;29;20704;-81
2022/09/12 15:02:19;;;;;;;1.75;1.63;;;20.10;99.90;;;;;;10207770;29;20230;-81
2022/09/12 15:07:27;;;;;;;3.80;3.15;;;20.50;99.90;;;;;;10211659;29;20349;-80
2022/09/12 15:12:29;;;;;;;5.00;4.60;;;22.70;99.90;;;;;;10239673;29;20234;-80
2022/09/12 15:17:32;;;;;;;5.28;4.88;;;23.30;99.90;;;;;;10236266;29;20265;-80
2022/09/12 15:22:36;;;;;;;2.10;1.90;;;23.40;99.50;;;;;;10220999;28;20770;-80
2022/09/12 15:27:42;;;;;;;2.92;2.63;;;20.50;99.90;;;;;;10253115;29;20230;-81
2022/09/12 15:32:45;;;;;;;4.80;3.75;;;22.20;99.90;;;;;;10236573;28;20308;-81
2022/09/12 15:37:48;;;;;;;3.30;1.83;;;20.00;99.90;;;;;;10252281;29;20641;-80
2022/09/12 15:42:51;;;;;;;6.88;4.78;;;19.70;99.90;;;;;;10250424;28;20284;-80
2022/09/12 15:47:54;;;;;;;6.03;1.88;;;21.20;99.90;;;;;;10251738;28;20226;-80
2022/09/12 15:52:57;;;;;;;2.08;1.73;;;19.80;99.90;;;;;;10232768;29;20269;-80
2022/09/12 15:58:00;;;;;;;1.98;1.55;;;19.40;99.90;;;;;;10234643;29;20253;-81
2022/09/12 16:21:45;;;;;;;6.40;5.90;;;21.70;99.90;;;;;;10607656;27;20276;-86
2022/09/12 16:26:47;;;;;;;8.80;6.68;;;22.40;99.90;;;;;;10577775;28;20237;-83
2022/09/12 16:31:50;;;;;;;6.60;6.00;;;22.70;99.90;;;;;;10565835;28;20228;-81
2022/09/12 16:36:53;;;;;;;7.18;6.47;;;22.90;99.90;;;;;;10566691;28;20278;-80
2022/09/12 16:41:55;;;;;;;4.43;4.05;;;22.60;99.90;;;;;;10564458;28;20229;-80
2022/09/12 16:46:59;;;;;;;7.30;6.60;;;22.50;99.90;;;;;;10546097;28;20244;-82
2022/09/12 16:52:01;;;;;;;8.10;7.25;;;22.60;99.90;;;;;;10566335;28;20225;-82
2022/09/12 16:57:05;;;;;;;9.30;8.20;;;22.60;99.90;;;;;;10599003;27;21032;-86
2022/09/12 17:02:12;;;;;;;9.45;8.32;;;22.80;99.90;;;;;;10566329;28;20602;-82
2022/09/12 17:07:15;;;;;;;9.32;8.30;;;22.80;99.90;;;;;;10575427;28;20278;-81
2022/09/12 17:12:17;;;;;;;8.55;7.70;;;22.80;99.90;;;;;;10580947;27;20674;-81
2022/09/12 17:17:20;;;;;;;8.68;7.97;;;22.90;99.90;;;;;;10559751;28;20282;-81
2022/09/12 17:22:22;;;;;;;9.13;8.30;;;22.80;99.90;;;;;;10539485;28;20274;-82
2022/09/12 17:27:24;;;;;;;8.18;7.47;;;22.70;99.90;;;;;;10534044;28;20281;-82
2022/09/12 17:32:27;;;;;;;8.25;7.45;;;22.70;99.90;;;;;;10580177;28;20193;-82
2022/09/12 17:37:30;;;;;;;8.95;8.15;;;22.60;99.90;;;;;;10556542;28;20213;-82
2022/09/12 17:42:34;;;;;;;9.65;8.75;;;22.60;99.90;;;;;;10567023;28;20236;-81
2022/09/12 17:47:38;;;;;;;9.88;8.27;;;22.50;99.90;;;;;;10557294;28;20257;-81
2022/09/12 17:52:41;;;;;;;10.02;9.02;;;22.50;99.90;;;;;;10531732;28;20298;-81
2022/09/12 17:57:44;;;;;;;9.63;8.70;;;22.40;99.90;;;;;;10537785;28;20581;-81
2022/09/12 18:02:48;;;;;;;9.27;8.48;;;22.40;99.90;;;;;;10537020;28;20709;-81
2022/09/12 18:07:51;;;;;;;10.75;9.65;;;22.30;99.90;;;;;;10534242;28;20310;-81
2022/09/12 18:12:54;;;;;;;9.75;8.88;;;22.30;99.90;;;;;;10494654;28;20230;-81
2022/09/12 18:17:56;;;;;;;9.05;8.25;;;22.30;99.90;;;;;;10540529;28;20252;-81
2022/09/12 18:22:59;;;;;;;9.88;8.98;;;22.30;99.90;;;;;;10541751;28;20233;-81
2022/09/12 18:28:02;;;;;;;8.70;7.93;;;22.20;99.90;;;;;;10531222;28;20253;-81
2022/09/12 18:33:10;;;;;;;9.85;8.95;;;22.20;99.90;;;;;;10534243;28;20258;-81
2022/09/12 18:38:13;;;;;;;9.18;8.30;;;22.20;99.90;;;;;;10534245;28;20282;-82
2022/09/12 18:43:16;;;;;;;9.43;8.55;;;22.20;99.90;;;;;;10535256;28;20225;-80
2022/09/12 18:48:18;;;;;;;10.88;9.88;;;22.20;99.90;;;;;;10535238;28;20877;-81
2022/09/12 18:53:21;;;;;;;9.80;8.88;;;22.10;99.90;;;;;;10526151;28;20205;-81
2022/09/12 18:58:24;;;;;;;9.43;8.63;;;22.10;99.90;;;;;;10535174;28;20286;-82
2022/09/12 19:03:26;;;;;;;10.20;9.25;;;22.10;99.90;;;;;;10532555;28;20197;-81
2022/09/12 19:08:29;;;;;;;9.38;8.48;;;22.00;99.90;;;;;;10530649;28;20279;-81
2022/09/12 19:13:35;;;;;;;10.55;9.50;;;22.00;99.90;;;;;;10532997;28;20288;-81
2022/09/12 19:18:39;;;;;;;8.77;7.97;;;22.00;99.90;;;;;;10538729;28;20225;-81
2022/09/12 19:23:42;;;;;;;9.90;9.00;;;22.00;99.90;;;;;;10533641;28;20209;-80
2022/09/12 19:28:45;;;;;;;9.75;8.85;;;22.00;99.90;;;;;;10530524;28;20300;-80
2022/09/12 19:33:49;;;;;;;9.13;8.32;;;21.90;99.90;;;;;;10521437;28;20193;-82
2022/09/12 19:38:52;;;;;;;9.38;8.48;;;21.90;99.90;;;;;;10536947;28;20666;-83
2022/09/12 19:43:55;;;;;;;10.05;9.15;;;21.90;99.90;;;;;;10540821;28;20938;-81
2022/09/12 19:48:57;;;;;;;9.68;8.77;;;21.90;99.90;;;;;;10534449;28;20245;-81
2022/09/12 19:54:00;;;;;;;9.90;8.88;;;21.90;99.90;;;;;;10546167;27;20950;-81
2022/09/12 19:59:03;;;;;;;8.13;7.47;;;21.90;99.90;;;;;;10530308;28;20275;-80
2022/09/12 20:04:05;;;;;;;8.60;7.90;;;21.90;99.90;;;;;;10557292;28;20205;-81
2022/09/12 20:09:08;;;;;;;10.32;9.30;;;21.40;99.90;;;;;;10542252;28;20254;-81
2022/09/12 20:14:10;;;;;;;8.50;7.80;;;21.60;99.90;;;;;;10539283;28;20225;-84
2022/09/12 20:19:13;;;;;;;8.82;8.02;;;21.80;99.90;;;;;;10539062;28;20261;-81
2022/09/12 20:24:15;;;;;;;9.80;8.80;;;21.80;99.90;;;;;;10533103;28;20203;-84
2022/09/12 20:29:17;;;;;;;9.15;8.10;;;21.80;99.90;;;;;;10531837;28;20342;-81
2022/09/12 20:34:20;;;;;;;9.88;8.77;;;21.70;99.90;;;;;;10532729;28;20194;-81
2022/09/12 20:39:23;;;;;;;9.15;8.35;;;21.70;99.90;;;;;;10546958;28;20239;-81
2022/09/12 20:44:26;;;;;;;8.75;8.00;;;21.70;99.90;;;;;;10522407;28;20686;-81
2022/09/12 20:49:28;;;;;;;9.45;8.57;;;21.70;99.90;;;;;;10514893;28;20292;-81
2022/09/12 20:54:31;;;;;;;9.10;8.20;;;21.70;99.90;;;;;;10529177;28;20251;-80
2022/09/12 20:59:34;;;;;;;10.00;8.05;;;21.70;99.90;;;;;;10519432;28;20627;-81
2022/09/12 21:04:36;;;;;;;9.15;8.25;;;21.70;99.90;;;;;;10533974;28;20237;-81
2022/09/12 21:09:38;;;;;;;10.05;8.55;;;21.70;99.90;;;;;;10536591;28;20245;-80
2022/09/12 21:14:41;;;;;;;8.77;7.97;;;21.60;99.90;;;;;;10534736;28;20217;-81
2022/09/12 21:19:43;;;;;;;8.95;8.15;;;21.60;99.90;;;;;;10535803;28;20261;-81
2022/09/12 21:24:46;;;;;;;9.90;8.90;;;21.60;99.90;;;;;;10535840;28;20233;-81
2022/09/12 21:29:49;;;;;;;9.63;8.73;;;21.60;99.90;;;;;;10536282;28;20649;-81
2022/09/12 21:34:51;;;;;;;8.93;8.13;;;21.50;99.90;;;;;;10536074;28;20259;-81
2022/09/12 21:39:54;;;;;;;9.82;8.05;;;21.60;99.90;;;;;;10536772;28;20956;-81
2022/09/12 21:44:56;;;;;;;10.43;9.43;;;21.50;99.90;;;;;;10535592;28;20688;-81
2022/09/12 21:49:59;;;;;;;9.15;8.25;;;21.60;99.90;;;;;;10536066;28;20245;-81
2022/09/12 21:55:05;;;;;;;9.48;8.52;;;21.60;99.90;;;;;;10534557;28;20229;-81
2022/09/12 22:00:14;;;;;;;9.25;8.27;;;21.50;99.90;;;;;;10530314;28;20278;-80
2022/09/12 22:05:20;;;;;;;10.50;9.40;;;21.50;99.90;;;;;;10550633;28;20225;-81
2022/09/12 22:10:22;;;;;;;9.43;8.52;;;21.50;99.90;;;;;;10531637;28;20258;-81
2022/09/12 22:15:25;;;;;;;9.40;8.38;;;21.40;99.90;;;;;;10532081;28;20221;-81
2022/09/12 22:20:42;;;;;;;9.55;8.65;;;21.50;99.90;;;;;;10534612;28;20245;-81
2022/09/12 22:25:45;;;;;;;8.98;8.15;;;21.50;99.90;;;;;;10532317;28;20241;-81
2022/09/12 22:30:48;;;;;;;9.30;8.15;;;21.40;99.90;;;;;;10529890;28;20673;-81
2022/09/12 22:35:50;;;;;;;9.82;8.93;;;21.40;99.90;;;;;;10517596;28;20225;-81
2022/09/12 22:40:53;;;;;;;8.35;7.53;;;21.40;99.90;;;;;;10531488;28;20752;-81
2022/09/12 22:45:55;;;;;;;9.30;8.30;;;21.40;99.90;;;;;;10532368;28;20290;-81
2022/09/12 22:50:58;;;;;;;8.95;8.10;;;21.30;99.90;;;;;;10531519;28;20688;-81
2022/09/12 22:56:01;;;;;;;9.00;8.10;;;21.30;99.90;;;;;;10519988;28;20627;-81
2022/09/12 23:01:05;;;;;;;9.05;8.25;;;21.30;99.90;;;;;;10525708;28;20327;-81
2022/09/12 23:06:08;;;;;;;9.00;8.07;;;21.30;99.90;;;;;;10508789;28;20556;-81
2022/09/12 23:11:13;;;;;;;8.70;7.85;;;21.40;99.90;;;;;;10523116;28;20301;-81
2022/09/12 23:16:21;;;;;;;8.70;7.90;;;21.30;99.90;;;;;;10541831;28;20226;-81
2022/09/12 23:21:24;;;;;;;8.00;7.28;;;21.20;99.90;;;;;;10525748;28;20698;-81
2022/09/12 23:26:27;;;;;;;8.55;7.70;;;21.30;99.90;;;;;;10514212;28;21170;-81
2022/09/12 23:31:31;;;;;;;9.18;8.27;;;21.20;99.90;;;;;;10532901;28;20319;-81
2022/09/12 23:36:33;;;;;;;8.65;7.75;;;21.20;99.90;;;;;;10531509;28;20610;-81
2022/09/12 23:41:36;;;;;;;8.68;7.88;;;21.20;99.90;;;;;;10537404;28;20298;-81
2022/09/12 23:46:39;;;;;;;8.55;7.78;;;21.20;99.90;;;;;;10565495;27;20629;-81
2022/09/12 23:51:41;;;;;;;8.80;7.65;;;21.10;99.90;;;;;;10532650;28;20253;-81
2022/09/12 23:56:44;;;;;;;9.55;8.55;;;21.10;99.90;;;;;;10533471;28;20676;-81
